Time;durP1;ratioP1;P1;durP2;ratioP2;P2;SDS_P1;SDS_P2;PMS_P1;PMS_P2;Temp;Humidity;BMP_temperature;BMP_pressure;BME280_temperature;BME280_humidity;BME280_pressure;Samples;Min_cycle;Max_cycle;Signal;HPM_P1;HPM_P2
2023/01/23 00:00:15;;;;;;;;;;;;;;;1.35;79.26;101228.56;1087824;47;19942;-78
2023/01/23 00:01:17;;;;;;;;;;;;;;;1.40;79.14;101218.72;1086769;54;19939;-79
2023/01/23 00:02:23;;;;;;;;;;;;;;;1.49;79.24;101216.66;1086627;54;19978;-79
2023/01/23 00:03:25;;;;;;;;;;;;;;;1.56;79.23;101218.13;1087796;47;20276;-79
2023/01/23 00:04:28;;;;;;;;;;;;;;;1.61;79.02;101217.97;1086618;54;19950;-79
2023/01/23 00:05:29;;;;;;;;;;;;;;;1.62;79.00;101217.91;1086652;54;20441;-79
2023/01/23 00:06:33;;;;;;;;;;;;;;;1.60;79.07;101219.75;1086863;54;19953;-80
2023/01/23 00:07:34;;;;;;;;;;;;;;;1.63;79.29;101211.72;1088227;39;20482;-79
2023/01/23 00:08:38;;;;;;;;;;;;;;;1.64;78.96;101208.16;1086554;54;20003;-78
2023/01/23 00:09:39;;;;;;;;;;;;;;;1.69;79.14;101211.50;1086621;54;19943;-79
2023/01/23 00:10:43;;;;;;;;;;;;;;;1.73;79.08;101214.00;1086799;54;20002;-79
2023/01/23 00:11:44;;;;;;;;;;;;;;;1.69;78.69;101214.13;1086436;54;20496;-79
2023/01/23 00:12:48;;;;;;;;;;;;;;;1.71;78.67;101204.34;1086585;54;19958;-79
2023/01/23 00:13:49;;;;;;;;;;;;;;;1.69;78.89;101213.25;1086537;54;20015;-80
2023/01/23 00:14:53;;;;;;;;;;;;;;;1.60;78.72;101211.84;1086630;54;19950;-79
2023/01/23 00:15:54;;;;;;;;;;;;;;;1.63;78.89;101203.81;1086482;54;19950;-79
2023/01/23 00:16:58;;;;;;;;;;;;;;;1.61;78.75;101218.81;1086381;54;19947;-79
2023/01/23 00:18:01;;;;;;;;;;;;;;;1.59;78.89;101215.41;1086310;54;20460;-79
2023/01/23 00:19:05;;;;;;;;;;;;;;;1.56;79.19;101210.22;1086287;54;19951;-79
2023/01/23 00:20:07;;;;;;;;;;;;;;;1.54;79.89;101202.41;1087169;39;20495;-79
2023/01/23 00:21:12;;;;;;;;;;;;;;;1.59;79.99;101204.84;1086269;54;19938;-79
2023/01/23 00:22:14;;;;;;;;;;;;;;;1.51;80.12;101206.94;1086399;54;19958;-78
2023/01/23 00:23:18;;;;;;;;;;;;;;;1.46;80.69;101208.84;1086189;54;20551;-79
2023/01/23 00:24:19;;;;;;;;;;;;;;;1.42;80.60;101199.38;1086199;54;19950;-79
2023/01/23 00:25:23;;;;;;;;;;;;;;;1.39;80.91;101203.84;1086217;54;19969;-79
2023/01/23 00:26:24;;;;;;;;;;;;;;;1.43;81.31;101201.94;1086332;54;19977;-79
2023/01/23 00:27:28;;;;;;;;;;;;;;;1.40;81.30;101197.66;1086385;54;19947;-79
2023/01/23 00:28:29;;;;;;;;;;;;;;;1.38;81.72;101202.09;1086089;54;19946;-79
2023/01/23 00:29:33;;;;;;;;;;;;;;;1.43;81.54;101203.69;1086610;47;19954;-79
2023/01/23 00:30:34;;;;;;;;;;;;;;;1.41;81.35;101195.84;1086288;54;19950;-79
2023/01/23 00:31:40;;;;;;;;;;;;;;;1.40;81.33;101202.03;1086373;54;19974;-79
2023/01/23 00:32:41;;;;;;;;;;;;;;;1.35;81.61;101198.72;1086361;54;19978;-79
2023/01/23 00:33:48;;;;;;;;;;;;;;;1.40;81.88;101196.78;1089383;39;20349;-79
2023/01/23 00:34:49;;;;;;;;;;;;;;;1.47;81.75;101200.88;1086299;54;19973;-79
2023/01/23 00:35:55;;;;;;;;;;;;;;;1.44;81.29;101189.59;1086396;54;19949;-79
2023/01/23 00:36:56;;;;;;;;;;;;;;;1.37;81.37;101203.03;1086668;54;19967;-79
2023/01/23 00:38:00;;;;;;;;;;;;;;;1.34;81.41;101203.13;1086685;54;19950;-79
2023/01/23 00:39:02;;;;;;;;;;;;;;;1.36;81.81;101203.94;1086626;54;19951;-78
2023/01/23 00:40:06;;;;;;;;;;;;;;;1.40;81.60;101204.69;1087022;54;20547;-79
2023/01/23 00:41:07;;;;;;;;;;;;;;;1.42;81.59;101202.84;1087833;46;19946;-79
2023/01/23 00:42:11;;;;;;;;;;;;;;;1.42;81.31;101202.00;1087306;54;19943;-80
2023/01/23 00:43:12;;;;;;;;;;;;;;;1.47;81.20;101200.88;1087551;54;19942;-78
2023/01/23 00:44:16;;;;;;;;;;;;;;;1.35;81.21;101204.84;1087402;54;19967;-78
2023/01/23 00:45:17;;;;;;;;;;;;;;;1.39;81.48;101210.84;1087181;54;19939;-79
2023/01/23 00:46:21;;;;;;;;;;;;;;;1.36;81.85;101208.34;1087472;54;19946;-79
2023/01/23 00:47:22;;;;;;;;;;;;;;;1.33;82.00;101211.94;1087493;54;19953;-79
2023/01/23 00:48:26;;;;;;;;;;;;;;;1.30;81.99;101212.06;1087568;54;19962;-79
2023/01/23 00:49:30;;;;;;;;;;;;;;;1.32;81.85;101218.16;1087514;54;19953;-79
2023/01/23 00:50:34;;;;;;;;;;;;;;;1.32;82.02;101219.91;1087556;54;19965;-79
2023/01/23 00:51:35;;;;;;;;;;;;;;;1.36;81.73;101205.72;1087484;54;19994;-79
2023/01/23 00:52:39;;;;;;;;;;;;;;;1.43;81.74;101208.97;1087543;54;19955;-78
2023/01/23 00:53:40;;;;;;;;;;;;;;;1.47;81.57;101207.94;1087641;54;19950;-79
2023/01/23 00:54:43;;;;;;;;;;;;;;;1.51;81.25;101207.78;1087435;54;19942;-79
2023/01/23 00:55:44;;;;;;;;;;;;;;;1.40;80.98;101207.31;1087608;54;19966;-79
2023/01/23 00:56:48;;;;;;;;;;;;;;;1.41;81.19;101209.03;1087459;39;20356;-79
2023/01/23 00:57:49;;;;;;;;;;;;;;;1.41;81.37;101211.66;1086886;54;19943;-79
2023/01/23 00:58:53;;;;;;;;;;;;;;;1.43;81.22;101206.31;1087519;54;19958;-79
2023/01/23 00:59:54;;;;;;;;;;;;;;;1.46;81.45;101209.75;1087316;54;19973;-79
2023/01/23 01:00:58;;;;;;;;;;;;;;;1.45;81.23;101209.78;1087372;54;20007;-79
2023/01/23 01:01:59;;;;;;;;;;;;;;;1.44;81.49;101210.69;1087506;54;19981;-79
2023/01/23 01:03:03;;;;;;;;;;;;;;;1.43;81.41;101212.47;1087559;54;19957;-79
2023/01/23 01:04:06;;;;;;;;;;;;;;;1.51;81.64;101218.31;1087439;54;19950;-79
2023/01/23 01:05:10;;;;;;;;;;;;;;;1.55;80.95;101213.78;1087504;54;20457;-79
2023/01/23 01:06:14;;;;;;;;;;;;;;;1.57;80.93;101211.97;1087478;54;20548;-78
2023/01/23 01:07:15;;;;;;;;;;;;;;;1.60;80.78;101222.41;1087517;54;19950;-79
2023/01/23 01:08:19;;;;;;;;;;;;;;;1.65;80.80;101224.84;1087502;54;19946;-78
2023/01/23 01:09:20;;;;;;;;;;;;;;;1.63;80.29;101224.03;1087540;54;19958;-78
2023/01/23 01:10:28;;;;;;;;;;;;;;;1.64;80.25;101218.69;1087519;54;19992;-79
2023/01/23 01:11:31;;;;;;;;;;;;;;;1.66;80.04;101226.53;1087667;54;19981;-79
2023/01/23 01:12:32;;;;;;;;;;;;;;;1.65;80.01;101225.69;1087470;54;19950;-79
2023/01/23 01:13:36;;;;;;;;;;;;;;;1.70;80.12;101220.25;1087509;54;19949;-78
2023/01/23 01:14:37;;;;;;;;;;;;;;;1.71;80.27;101224.59;1087546;54;19943;-79
2023/01/23 01:15:41;;;;;;;;;;;;;;;1.75;80.20;101222.72;1087635;54;19975;-79
2023/01/23 01:16:45;;;;;;;;;;;;;;;1.79;80.00;101226.97;1087494;54;19934;-79
2023/01/23 01:17:49;;;;;;;;;;;;;;;1.75;79.91;101226.19;1087449;54;19954;-79
2023/01/23 01:18:52;;;;;;;;;;;;;;;1.82;79.88;101221.53;1087594;39;20781;-79
2023/01/23 01:19:54;;;;;;;;;;;;;;;1.83;79.66;101221.50;1088494;39;21050;-79
2023/01/23 01:21:00;;;;;;;;;;;;;;;1.85;79.49;101224.06;1087058;54;20122;-79
2023/01/23 01:22:01;;;;;;;;;;;;;;;1.85;79.20;101221.44;1087038;54;19950;-79
2023/01/23 01:23:05;;;;;;;;;;;;;;;1.83;78.84;101221.50;1086899;54;19951;-79
2023/01/23 01:24:06;;;;;;;;;;;;;;;1.86;79.11;101228.44;1086769;54;20056;-78
2023/01/23 01:25:11;;;;;;;;;;;;;;;1.79;78.85;101237.50;1086993;54;19994;-79
2023/01/23 01:26:12;;;;;;;;;;;;;;;1.76;79.00;101225.28;1086832;54;19947;-79
2023/01/23 01:27:16;;;;;;;;;;;;;;;1.70;79.06;101231.63;1086080;54;19950;-79
2023/01/23 01:28:17;;;;;;;;;;;;;;;1.66;79.16;101232.69;1086865;39;20452;-79
2023/01/23 01:29:21;;;;;;;;;;;;;;;1.66;79.53;101232.69;1086543;54;20059;-79
2023/01/23 01:30:24;;;;;;;;;;;;;;;1.64;79.74;101234.53;1086761;54;19943;-79
2023/01/23 01:31:28;;;;;;;;;;;;;;;1.61;79.60;101236.41;1086291;54;19951;-79
2023/01/23 01:32:29;;;;;;;;;;;;;;;1.64;79.55;101228.41;1086570;54;19953;-79
2023/01/23 01:33:33;;;;;;;;;;;;;;;1.61;79.44;101234.63;1086436;54;20507;-78
2023/01/23 01:34:35;;;;;;;;;;;;;;;1.49;79.74;101241.22;1086589;54;19950;-79
2023/01/23 01:35:40;;;;;;;;;;;;;;;1.54;79.97;101236.66;1086516;54;19972;-78
2023/01/23 01:36:46;;;;;;;;;;;;;;;1.49;79.98;101232.47;1086461;54;19943;-79
2023/01/23 01:37:48;;;;;;;;;;;;;;;1.41;79.79;101238.03;1086158;54;19950;-79
2023/01/23 01:38:52;;;;;;;;;;;;;;;1.41;80.01;101240.66;1086551;54;19970;-79
2023/01/23 01:39:53;;;;;;;;;;;;;;;1.39;80.09;101239.84;1086365;54;19951;-80
2023/01/23 01:40:57;;;;;;;;;;;;;;;1.43;80.57;101237.94;1086678;54;20531;-78
2023/01/23 01:41:58;;;;;;;;;;;;;;;1.39;80.50;101246.00;1086718;54;20014;-79
2023/01/23 01:43:03;;;;;;;;;;;;;;;1.44;80.60;101250.22;1086513;54;19947;-79
2023/01/23 01:44:04;;;;;;;;;;;;;;;1.42;80.39;101247.66;1087839;39;20309;-79
2023/01/23 01:45:09;;;;;;;;;;;;;;;1.35;80.27;101249.63;1086456;54;19950;-79
2023/01/23 01:46:16;;;;;;;;;;;;;;;1.42;80.20;101250.28;1086440;54;19950;-79
2023/01/23 01:47:20;;;;;;;;;;;;;;;1.35;79.99;101249.63;1088122;39;20470;-79
2023/01/23 01:48:23;;;;;;;;;;;;;;;1.32;79.82;101244.50;1086982;54;20735;-79
2023/01/23 01:49:30;;;;;;;;;;;;;;;1.28;79.95;101242.88;1087088;54;20002;-79
2023/01/23 01:50:31;;;;;;;;;;;;;;;1.30;79.79;101246.34;1087219;54;20508;-80
2023/01/23 01:51:36;;;;;;;;;;;;;;;1.29;79.98;101239.34;1087057;54;19942;-79
2023/01/23 01:52:40;;;;;;;;;;;;;;;1.32;79.73;101241.88;1087106;54;20024;-78
2023/01/23 01:53:45;;;;;;;;;;;;;;;1.34;79.77;101242.66;1086971;54;19966;-79
2023/01/23 01:54:51;;;;;;;;;;;;;;;1.32;79.96;101241.00;1086988;54;19957;-79
2023/01/23 01:55:53;;;;;;;;;;;;;;;1.34;80.54;101241.81;1087019;54;19942;-79
2023/01/23 01:57:00;;;;;;;;;;;;;;;1.35;80.14;101247.00;1087171;46;19966;-79
2023/01/23 01:58:02;;;;;;;;;;;;;;;1.33;80.06;101247.97;1086911;54;19950;-79
2023/01/23 01:59:06;;;;;;;;;;;;;;;1.30;79.96;101248.09;1087108;54;19998;-79
2023/01/23 02:00:09;;;;;;;;;;;;;;;1.29;80.08;101249.88;1087117;54;19946;-78
2023/01/23 02:01:13;;;;;;;;;;;;;;;1.29;80.23;101243.72;1087232;54;19942;-80
2023/01/23 02:02:18;;;;;;;;;;;;;;;1.31;80.18;101245.41;1086745;54;19958;-79
2023/01/23 02:03:21;;;;;;;;;;;;;;;1.27;80.32;101256.97;1086421;54;19950;-79
2023/01/23 02:04:23;;;;;;;;;;;;;;;1.36;80.66;101251.38;1086324;54;19957;-79
2023/01/23 02:05:28;;;;;;;;;;;;;;;1.36;80.00;101254.00;1085842;54;19951;-79
2023/01/23 02:06:29;;;;;;;;;;;;;;;1.35;80.05;101254.06;1086268;54;19946;-79
2023/01/23 02:07:35;;;;;;;;;;;;;;;1.38;80.37;101257.44;1086749;54;19954;-79
2023/01/23 02:08:43;;;;;;;;;;;;;;;1.33;80.30;101256.75;1086259;54;19958;-79
2023/01/23 02:09:47;;;;;;;;;;;;;;;1.33;79.89;101248.84;1087760;39;20538;-79
2023/01/23 02:10:49;;;;;;;;;;;;;;;1.41;80.28;101264.38;1086478;46;19947;-78
2023/01/23 02:11:53;;;;;;;;;;;;;;;1.34;79.79;101252.34;1086270;54;19954;-78
2023/01/23 02:12:54;;;;;;;;;;;;;;;1.35;79.48;101259.34;1086657;54;19957;-79
2023/01/23 02:13:58;;;;;;;;;;;;;;;1.36;79.65;101261.91;1086452;54;20006;-79
2023/01/23 02:14:59;;;;;;;;;;;;;;;1.38;79.78;101254.81;1086509;54;19954;-79
2023/01/23 02:16:04;;;;;;;;;;;;;;;1.40;79.65;101260.00;1086596;54;19970;-79
2023/01/23 02:17:05;;;;;;;;;;;;;;;1.42;79.62;101260.81;1087056;54;19951;-79
2023/01/23 02:18:09;;;;;;;;;;;;;;;1.37;79.24;101258.34;1087343;54;19958;-80
2023/01/23 02:19:20;;;;;;;;;;;;;;;1.42;79.62;101254.72;1087249;54;19950;-79
2023/01/23 02:20:23;;;;;;;;;;;;;;;1.50;79.40;101257.91;1087166;54;19943;-79
2023/01/23 02:21:27;;;;;;;;;;;;;;;1.51;79.33;101252.59;1087174;54;19943;-79
2023/01/23 02:22:32;;;;;;;;;;;;;;;1.48;78.50;101257.94;1087213;54;19965;-79
2023/01/23 02:23:42;;;;;;;;;;;;;;;1.52;78.62;101256.94;1087025;54;19950;-78
2023/01/23 02:24:51;;;;;;;;;;;;;;;1.51;78.66;101260.50;1086788;54;19966;-79
2023/01/23 02:26:07;;;;;;;;;;;;;;;1.53;78.96;101253.38;1086257;54;19975;-78
2023/01/23 02:27:12;;;;;;;;;;;;;;;1.48;78.77;101254.47;1085548;54;19939;-79
2023/01/23 02:28:18;;;;;;;;;;;;;;;1.54;78.98;101262.16;1085922;54;19946;-78
2023/01/23 02:29:19;;;;;;;;;;;;;;;1.49;78.54;101257.03;1086557;54;19943;-80
2023/01/23 02:30:23;;;;;;;;;;;;;;;1.53;78.70;101248.13;1086919;54;19946;-78
2023/01/23 02:31:24;;;;;;;;;;;;;;;1.56;78.72;101257.69;1086742;54;19958;-78
2023/01/23 02:32:28;;;;;;;;;;;;;;;1.48;78.25;101255.31;1086896;54;19973;-79
2023/01/23 02:33:46;;;;;;;;;;;;;;;1.46;78.31;101257.19;1086565;54;19950;-79
2023/01/23 02:34:50;;;;;;;;;;;;;;;1.44;78.67;101258.13;1086562;54;19945;-79
2023/01/23 02:35:51;;;;;;;;;;;;;;;1.43;78.69;101259.03;1086623;54;19942;-78
2023/01/23 02:36:55;;;;;;;;;;;;;;;1.45;78.83;101259.84;1086612;54;20017;-78
2023/01/23 02:37:59;;;;;;;;;;;;;;;1.46;78.67;101261.56;1086810;54;19958;-78
2023/01/23 02:39:05;;;;;;;;;;;;;;;1.47;79.17;101265.94;1086496;54;19947;-79
2023/01/23 02:40:07;;;;;;;;;;;;;;;1.49;78.76;101256.19;1087233;31;20520;-79
2023/01/23 02:41:15;;;;;;;;;;;;;;;1.45;78.29;101257.22;1088363;39;20485;-79
2023/01/23 02:42:16;;;;;;;;;;;;;;;1.43;78.75;101262.56;1087364;54;19951;-79
2023/01/23 02:43:21;;;;;;;;;;;;;;;1.48;78.98;101257.09;1087338;54;19927;-79
2023/01/23 02:44:26;;;;;;;;;;;;;;;1.48;78.74;101257.09;1086758;54;20016;-78
2023/01/23 02:45:30;;;;;;;;;;;;;;;1.54;79.19;101256.88;1085682;54;20492;-78
2023/01/23 02:46:31;;;;;;;;;;;;;;;1.54;78.60;101259.50;1086803;54;19946;-79
2023/01/23 02:47:35;;;;;;;;;;;;;;;1.58;78.90;101254.97;1089730;46;19950;-79
2023/01/23 02:48:38;;;;;;;;;;;;;;;1.60;78.75;101248.75;1086728;54;19954;-79
2023/01/23 02:49:42;;;;;;;;;;;;;;;1.52;78.88;101254.31;1086545;54;20543;-79
2023/01/23 02:50:45;;;;;;;;;;;;;;;1.52;79.12;101258.69;1087455;39;20929;-78
2023/01/23 02:51:49;;;;;;;;;;;;;;;1.52;79.07;101250.78;1086665;54;19974;-79
2023/01/23 02:52:53;;;;;;;;;;;;;;;1.58;79.35;101244.44;1086458;54;19942;-79
2023/01/23 02:53:57;;;;;;;;;;;;;;;1.61;79.06;101250.44;1086645;54;20036;-79
2023/01/23 02:54:58;;;;;;;;;;;;;;;1.61;78.45;101244.31;1086576;54;20629;-79
2023/01/23 02:56:02;;;;;;;;;;;;;;;1.55;78.94;101246.28;1086595;54;19950;-79
2023/01/23 02:57:05;;;;;;;;;;;;;;;1.53;79.26;101255.16;1086653;54;19943;-79
2023/01/23 03:00:41;;;;;;;;;;;;;;;1.60;79.07;101254.03;1086363;54;19950;-79
2023/01/23 03:01:42;;;;;;;;;;;;;;;1.54;79.15;101249.84;1086094;54;19939;-79
2023/01/23 03:02:47;;;;;;;;;;;;;;;1.59;79.26;101254.94;1086826;54;20016;-79
2023/01/23 03:03:50;;;;;;;;;;;;;;;1.57;79.22;101251.50;1087470;54;19923;-79
2023/01/23 03:04:54;;;;;;;;;;;;;;;1.58;79.14;101261.13;1087687;39;20397;-79
2023/01/23 03:05:55;;;;;;;;;;;;;;;1.56;79.20;101257.69;1087255;54;19943;-79
2023/01/23 03:06:58;;;;;;;;;;;;;;;1.55;79.59;101261.22;1087022;54;20504;-79
2023/01/23 03:07:59;;;;;;;;;;;;;;;1.51;79.71;101254.38;1087155;54;19949;-79
2023/01/23 03:09:07;;;;;;;;;;;;;;;1.50;79.92;101257.91;1087101;54;19942;-79
2023/01/23 03:10:09;;;;;;;;;;;;;;;1.52;79.27;101263.97;1087284;54;19966;-80
2023/01/23 03:11:13;;;;;;;;;;;;;;;1.51;79.49;101267.56;1087204;54;19953;-79
2023/01/23 03:12:19;;;;;;;;;;;;;;;1.53;79.67;101257.78;1090227;39;20573;-80
2023/01/23 03:13:20;;;;;;;;;;;;;;;1.54;79.88;101260.38;1087157;54;19958;-79
2023/01/23 03:14:25;;;;;;;;;;;;;;;1.52;79.58;101262.22;1087188;54;19962;-79
2023/01/23 03:15:26;;;;;;;;;;;;;;;1.49;79.69;101262.31;1087157;54;20457;-80
2023/01/23 03:16:31;;;;;;;;;;;;;;;1.48;79.81;101255.31;1087188;54;19946;-79
2023/01/23 03:17:32;;;;;;;;;;;;;;;1.56;79.87;101257.69;1086989;54;19950;-81
2023/01/23 03:18:36;;;;;;;;;;;;;;;1.57;79.57;101264.69;1087108;54;19950;-79
2023/01/23 03:19:37;;;;;;;;;;;;;;;1.57;79.35;101264.69;1088149;39;20455;-79
2023/01/23 03:20:42;;;;;;;;;;;;;;;1.60;79.18;101259.28;1087416;54;19974;-80
2023/01/23 03:21:43;;;;;;;;;;;;;;;1.54;79.39;101265.66;1087533;54;19934;-79
2023/01/23 03:22:46;;;;;;;;;;;;;;;1.47;79.64;101263.28;1087490;54;19943;-79
2023/01/23 03:23:48;;;;;;;;;;;;;;;1.43;79.84;101256.41;1092022;39;20578;-79
2023/01/23 03:24:52;;;;;;;;;;;;;;;1.47;79.86;101263.28;1087531;54;19953;-79
2023/01/23 03:25:57;;;;;;;;;;;;;;;1.45;79.48;101263.34;1087871;39;20204;-79
2023/01/23 03:27:01;;;;;;;;;;;;;;;1.43;79.70;101262.56;1087537;54;19943;-79
2023/01/23 03:30:11;;;;;;;;;;;;;;;1.42;80.08;101255.56;1087435;54;19970;-79
2023/01/23 03:30:42;;;;;;;;;;;;;;;1.39;80.24;101260.94;1087346;54;19946;-79
2023/01/23 03:31:46;;;;;;;;;;;;;;;1.43;80.51;101261.66;1091479;39;20648;-79
2023/01/23 03:32:47;;;;;;;;;;;;;;;1.48;80.40;101259.75;1087448;54;19927;-79
2023/01/23 03:33:52;;;;;;;;;;;;;;;1.43;79.74;101259.91;1087482;54;20640;-79
2023/01/23 03:34:56;;;;;;;;;;;;;;;1.43;80.19;101262.56;1087485;54;19934;-79
2023/01/23 03:35:57;;;;;;;;;;;;;;;1.46;80.17;101264.19;1087495;54;20406;-80
2023/01/23 03:37:02;;;;;;;;;;;;;;;1.47;80.21;101265.94;1087483;54;19942;-79
2023/01/23 03:38:03;;;;;;;;;;;;;;;1.46;79.95;101265.09;1087438;54;19960;-79
2023/01/23 03:41:40;;;;;;;;;;;;;;;1.44;79.90;101266.03;1087402;54;19929;-80
2023/01/23 03:42:42;;;;;;;;;;;;;;;1.42;80.01;101262.63;1087391;54;19946;-79
2023/01/23 03:43:48;;;;;;;;;;;;;;;1.46;80.16;101269.47;1087423;54;19994;-79
2023/01/23 03:44:50;;;;;;;;;;;;;;;1.43;80.03;101266.94;1087546;54;19981;-79
2023/01/23 03:45:54;;;;;;;;;;;;;;;1.43;79.92;101257.28;1087242;54;19943;-78
2023/01/23 03:46:55;;;;;;;;;;;;;;;1.51;80.01;101262.28;1089070;39;20610;-80
2023/01/23 03:47:59;;;;;;;;;;;;;;;1.53;79.77;101261.28;1087484;54;19942;-79
2023/01/23 03:49:00;;;;;;;;;;;;;;;1.58;79.65;101263.75;1086846;54;19943;-79
2023/01/23 03:50:04;;;;;;;;;;;;;;;1.60;79.23;101259.28;1086934;54;19967;-79
2023/01/23 03:51:06;;;;;;;;;;;;;;;1.66;79.47;101258.19;1090209;39;20599;-80
2023/01/23 03:52:09;;;;;;;;;;;;;;;1.73;79.13;101272.00;1087054;54;19943;-79
2023/01/23 03:53:10;;;;;;;;;;;;;;;1.66;78.87;101259.06;1087401;39;20613;-78
2023/01/23 03:54:14;;;;;;;;;;;;;;;1.62;78.83;101267.97;1086983;54;19982;-78
2023/01/23 03:55:15;;;;;;;;;;;;;;;1.66;78.94;101248.50;1087068;54;20704;-79
2023/01/23 03:56:19;;;;;;;;;;;;;;;1.73;79.13;101254.41;1087342;54;19949;-79
2023/01/23 03:57:20;;;;;;;;;;;;;;;1.77;78.60;101255.16;1087225;54;19947;-78
2023/01/23 03:58:24;;;;;;;;;;;;;;;1.79;78.50;101248.91;1087004;54;19943;-79
2023/01/23 04:01:40;;;;;;;;;;;;;;;1.89;78.17;101253.81;1087896;54;19939;-84
2023/01/23 04:02:41;;;;;;;;;;;;;;;1.93;78.13;101252.78;1087882;54;19950;-84
2023/01/23 04:03:45;;;;;;;;;;;;;;;1.93;77.83;101256.28;1087813;54;19942;-82
2023/01/23 04:04:46;;;;;;;;;;;;;;;1.95;77.85;101253.56;1087790;54;19926;-83
2023/01/23 04:05:50;;;;;;;;;;;;;;;1.98;77.82;101264.00;1087931;54;19930;-82
2023/01/23 04:06:51;;;;;;;;;;;;;;;2.00;77.57;101251.63;1087901;54;19942;-84
2023/01/23 04:07:55;;;;;;;;;;;;;;;2.05;77.88;101264.63;1087886;54;19934;-83
2023/01/23 04:08:57;;;;;;;;;;;;;;;2.06;77.62;101258.44;1090225;47;19969;-84
2023/01/23 04:10:00;;;;;;;;;;;;;;;2.05;76.99;101262.00;1087838;54;19970;-84
2023/01/23 04:11:02;;;;;;;;;;;;;;;1.95;76.84;101250.94;1087868;54;19947;-83
2023/01/23 04:12:06;;;;;;;;;;;;;;;1.89;76.63;101252.03;1088319;47;19934;-83
2023/01/23 04:13:07;;;;;;;;;;;;;;;1.95;77.31;101261.47;1087780;54;20618;-84
2023/01/23 04:14:11;;;;;;;;;;;;;;;1.93;77.14;101255.44;1088127;54;20013;-83
2023/01/23 04:15:12;;;;;;;;;;;;;;;1.97;77.43;101255.25;1088145;54;19930;-83
2023/01/23 04:16:16;;;;;;;;;;;;;;;1.99;76.93;101260.47;1088289;54;19942;-84
2023/01/23 04:17:22;;;;;;;;;;;;;;;2.00;77.01;101263.03;1088238;54;19930;-83
2023/01/23 04:18:23;;;;;;;;;;;;;;;2.03;77.01;101262.06;1088930;46;19949;-83
2023/01/23 04:19:27;;;;;;;;;;;;;;;2.02;76.57;101263.84;1088323;54;19942;-83
2023/01/23 04:20:28;;;;;;;;;;;;;;;1.95;76.25;101269.41;1088280;54;20002;-84
2023/01/23 04:21:32;;;;;;;;;;;;;;;1.85;76.46;101266.28;1088237;54;19950;-83
2023/01/23 04:22:33;;;;;;;;;;;;;;;1.91;77.07;101267.81;1088311;54;19931;-83
2023/01/23 04:23:37;;;;;;;;;;;;;;;1.94;76.95;101267.69;1088252;54;19946;-83
2023/01/23 04:24:38;;;;;;;;;;;;;;;1.86;76.85;101270.63;1088132;54;19930;-83
2023/01/23 04:25:42;;;;;;;;;;;;;;;1.80;76.72;101266.44;1088194;54;19946;-83
2023/01/23 04:26:44;;;;;;;;;;;;;;;1.74;76.71;101271.09;1088748;46;19935;-83
2023/01/23 04:27:48;;;;;;;;;;;;;;;1.71;76.97;101274.69;1089546;46;20590;-84
2023/01/23 04:28:49;;;;;;;;;;;;;;;1.70;77.08;101283.53;1092286;39;20178;-85
2023/01/23 04:29:53;;;;;;;;;;;;;;;1.78;77.17;101276.19;1088280;54;19950;-83
2023/01/23 04:30:54;;;;;;;;;;;;;;;1.83;77.17;101284.78;1088390;54;19946;-83
2023/01/23 04:31:57;;;;;;;;;;;;;;;1.81;77.09;101293.66;1088323;54;19950;-83
2023/01/23 04:33:01;;;;;;;;;;;;;;;1.86;76.86;101281.19;1088489;46;19950;-83
2023/01/23 04:34:05;;;;;;;;;;;;;;;1.87;77.03;101281.09;1091285;46;19943;-84
2023/01/23 04:35:06;;;;;;;;;;;;;;;1.83;76.68;101286.56;1088232;54;19939;-83
2023/01/23 04:36:10;;;;;;;;;;;;;;;1.88;76.82;101289.91;1088632;46;19938;-82
2023/01/23 04:37:14;;;;;;;;;;;;;;;1.86;76.97;101286.44;1089488;46;19934;-82
2023/01/23 04:38:15;;;;;;;;;;;;;;;1.82;76.89;101296.25;1089298;46;19949;-83
2023/01/23 04:39:19;;;;;;;;;;;;;;;1.82;76.94;101295.38;1088191;54;19951;-82
2023/01/23 04:40:20;;;;;;;;;;;;;;;1.75;77.06;101301.81;1088228;54;19947;-85
2023/01/23 04:41:25;;;;;;;;;;;;;;;1.73;77.02;101306.28;1088171;54;19943;-83
2023/01/23 04:42:26;;;;;;;;;;;;;;;1.71;77.33;101301.91;1088187;54;19942;-85
2023/01/23 04:43:29;;;;;;;;;;;;;;;1.71;77.42;101301.91;1088114;54;19949;-84
2023/01/23 04:44:31;;;;;;;;;;;;;;;1.71;77.77;101315.09;1088184;54;19943;-83
2023/01/23 04:45:35;;;;;;;;;;;;;;;1.64;77.55;101303.06;1088146;54;19947;-83
2023/01/23 04:46:37;;;;;;;;;;;;;;;1.68;77.69;101309.97;1095896;39;20553;-84
2023/01/23 04:47:41;;;;;;;;;;;;;;;1.65;77.55;101319.75;1088128;54;19999;-83
2023/01/23 04:48:45;;;;;;;;;;;;;;;1.66;77.61;101306.50;1088188;54;19950;-83
2023/01/23 04:49:49;;;;;;;;;;;;;;;1.67;77.41;101313.50;1088187;54;19942;-83
2023/01/23 04:50:50;;;;;;;;;;;;;;;1.65;77.20;101317.97;1088498;54;19949;-83
2023/01/23 04:51:54;;;;;;;;;;;;;;;1.60;77.49;101317.28;1088511;54;19939;-83
2023/01/23 04:52:57;;;;;;;;;;;;;;;1.60;77.41;101316.41;1088564;54;19926;-84
2023/01/23 04:54:00;;;;;;;;;;;;;;;1.59;77.65;101318.22;1088615;54;19933;-83
2023/01/23 04:55:02;;;;;;;;;;;;;;;1.56;77.31;101320.94;1088625;54;19943;-86
2023/01/23 04:56:06;;;;;;;;;;;;;;;1.56;77.47;101313.03;1088541;54;19979;-85
2023/01/23 04:57:07;;;;;;;;;;;;;;;1.49;77.56;101316.81;1088511;54;19934;-84
2023/01/23 04:58:12;;;;;;;;;;;;;;;1.47;77.77;101311.56;1088444;54;20524;-84
2023/01/23 04:59:15;;;;;;;;;;;;;;;1.50;77.88;101315.91;1088614;54;19934;-83
2023/01/23 05:00:20;;;;;;;;;;;;;;;1.50;77.55;101322.03;1088511;54;20566;-85
2023/01/23 05:01:22;;;;;;;;;;;;;;;1.48;77.62;101317.72;1101809;39;20648;-83
2023/01/23 05:02:26;;;;;;;;;;;;;;;1.48;77.81;101320.38;1088558;54;19934;-85
2023/01/23 05:03:27;;;;;;;;;;;;;;;1.51;77.99;101318.47;1088600;54;19927;-85
2023/01/23 05:04:34;;;;;;;;;;;;;;;1.52;77.65;101321.94;1088577;54;19966;-84
2023/01/23 05:05:35;;;;;;;;;;;;;;;1.50;77.38;101311.47;1088531;54;19942;-85
2023/01/23 05:06:39;;;;;;;;;;;;;;;1.47;77.36;101316.00;1088624;54;19999;-84
2023/01/23 05:07:40;;;;;;;;;;;;;;;1.52;77.52;101319.31;1088620;54;19947;-84
2023/01/23 05:08:44;;;;;;;;;;;;;;;1.50;77.54;101316.75;1088627;54;20002;-83
2023/01/23 05:09:45;;;;;;;;;;;;;;;1.54;77.56;101317.50;1088556;54;19943;-85
2023/01/23 05:10:49;;;;;;;;;;;;;;;1.54;77.57;101322.78;1088576;54;19932;-84
2023/01/23 05:11:50;;;;;;;;;;;;;;;1.52;77.26;101320.19;1088396;54;20692;-85
2023/01/23 05:12:54;;;;;;;;;;;;;;;1.53;77.50;101315.78;1088601;54;19926;-85
2023/01/23 05:13:55;;;;;;;;;;;;;;;1.53;77.45;101315.78;1091204;46;19970;-84
2023/01/23 05:14:59;;;;;;;;;;;;;;;1.54;77.69;101322.78;1088611;54;19978;-84
2023/01/23 05:16:01;;;;;;;;;;;;;;;1.49;77.67;101317.66;1088432;54;19999;-84
2023/01/23 05:17:05;;;;;;;;;;;;;;;1.48;77.80;101318.56;1088601;54;19982;-84
2023/01/23 05:18:06;;;;;;;;;;;;;;;1.47;77.66;101321.28;1088585;54;19927;-86
2023/01/23 05:19:10;;;;;;;;;;;;;;;1.48;77.88;101320.38;1088461;54;20564;-82
2023/01/23 05:20:14;;;;;;;;;;;;;;;1.46;77.71;101317.78;1088063;54;19942;-84
2023/01/23 05:21:18;;;;;;;;;;;;;;;1.40;78.02;101324.13;1088166;54;19942;-83
2023/01/23 05:22:19;;;;;;;;;;;;;;;1.40;77.92;101318.88;1088044;54;19946;-83
2023/01/23 05:23:28;;;;;;;;;;;;;;;1.37;77.93;101328.66;1087985;54;19949;-83
2023/01/23 05:24:29;;;;;;;;;;;;;;;1.39;78.21;101325.06;1087987;54;19942;-82
2023/01/23 05:25:33;;;;;;;;;;;;;;;1.40;78.22;101324.13;1088095;54;19950;-83
2023/01/23 05:26:34;;;;;;;;;;;;;;;1.42;78.24;101317.97;1088171;54;19946;-83
2023/01/23 05:27:38;;;;;;;;;;;;;;;1.40;78.40;101316.22;1088230;54;19942;-83
2023/01/23 05:28:39;;;;;;;;;;;;;;;1.38;78.03;101318.06;1088143;54;19942;-82
2023/01/23 05:29:43;;;;;;;;;;;;;;;1.36;78.12;101321.66;1088166;54;20687;-82
2023/01/23 05:30:44;;;;;;;;;;;;;;;1.38;78.38;101320.69;1088355;54;19942;-83
2023/01/23 05:31:48;;;;;;;;;;;;;;;1.42;77.88;101331.13;1089386;46;19946;-84
2023/01/23 05:32:49;;;;;;;;;;;;;;;1.39;77.88;101330.31;1088749;46;19966;-81
2023/01/23 05:33:53;;;;;;;;;;;;;;;1.36;78.23;101329.56;1090673;46;19951;-82
2023/01/23 05:34:54;;;;;;;;;;;;;;;1.31;78.11;101326.22;1088794;46;19943;-83
2023/01/23 05:36:03;;;;;;;;;;;;;;;1.35;78.46;101326.06;1088154;54;19942;-84
2023/01/23 05:37:04;;;;;;;;;;;;;;;1.43;78.57;101317.00;1088252;54;19946;-82
2023/01/23 05:38:08;;;;;;;;;;;;;;;1.46;78.18;101322.19;1088982;46;19998;-84